createdAt,value
2017-12-20T00:00:39.905Z,39.67
2017-12-20T00:03:07.377Z,37.50
2017-12-20T00:05:36.351Z,52.73
2017-12-20T00:08:03.841Z,45.67
2017-12-20T00:10:31.314Z,39.77
2017-12-20T00:12:58.729Z,39.83
2017-12-20T00:15:26.162Z,38.83
2017-12-20T00:17:53.562Z,44.07
2017-12-20T00:20:20.982Z,39.40
2017-12-20T00:22:49.146Z,50.43
2017-12-20T00:25:16.699Z,40.47
2017-12-20T00:27:44.214Z,40.27
2017-12-20T00:30:11.641Z,40.30
2017-12-20T00:32:39.186Z,37.80
2017-12-20T00:35:06.586Z,37.00
2017-12-20T00:37:34.011Z,40.73
2017-12-20T00:40:01.470Z,36.87
2017-12-20T00:42:28.945Z,37.30
2017-12-20T00:44:56.358Z,36.30
2017-12-20T00:47:23.865Z,33.90
2017-12-20T00:49:51.349Z,32.23
2017-12-20T00:52:18.799Z,29.67
2017-12-20T00:54:46.231Z,31.10
2017-12-20T00:57:13.652Z,30.43
2017-12-20T00:59:41.122Z,38.20
2017-12-20T01:02:08.581Z,34.87
2017-12-20T01:04:36.055Z,33.73
2017-12-20T01:07:03.470Z,28.20
2017-12-20T01:09:30.879Z,29.80
2017-12-20T01:11:58.309Z,33.27
2017-12-20T01:14:25.721Z,32.47
2017-12-20T01:16:53.129Z,43.27
2017-12-20T01:19:20.554Z,54.57
2017-12-20T01:21:47.965Z,54.30
2017-12-20T01:24:15.369Z,57.03
2017-12-20T01:26:43.582Z,63.87
2017-12-20T01:29:10.999Z,59.80
2017-12-20T01:31:38.402Z,64.20
2017-12-20T01:34:05.813Z,67.33
2017-12-20T01:36:33.358Z,67.47
2017-12-20T01:39:01.506Z,63.03
2017-12-20T01:41:29.718Z,63.60
2017-12-20T01:43:57.118Z,57.43
2017-12-20T01:46:24.551Z,63.97
2017-12-20T01:48:51.966Z,59.73
2017-12-20T01:51:19.378Z,73.00
2017-12-20T01:53:47.590Z,64.50
2017-12-20T01:56:15.058Z,59.70
2017-12-20T01:58:42.632Z,62.07
2017-12-20T02:01:10.117Z,67.67
2017-12-20T02:03:37.502Z,60.83
2017-12-20T02:06:05.026Z,60.00
2017-12-20T02:08:33.314Z,61.30
2017-12-20T02:11:00.788Z,65.40
2017-12-20T02:13:28.218Z,64.87
2017-12-20T02:15:56.398Z,57.60
2017-12-20T02:18:23.921Z,69.17
2017-12-20T02:20:51.326Z,64.93
2017-12-20T02:23:18.847Z,62.60
2017-12-20T02:25:46.323Z,62.80
2017-12-20T02:28:13.790Z,68.37
2017-12-20T02:30:41.249Z,56.60
2017-12-20T02:33:20.653Z,60.90
2017-12-20T02:35:48.057Z,61.17
2017-12-20T02:38:21.373Z,60.20
2017-12-20T02:40:48.850Z,59.50
2017-12-20T02:43:16.260Z,63.63
2017-12-20T02:45:43.794Z,60.67
2017-12-20T02:48:11.262Z,61.45
2017-12-20T02:50:38.661Z,64.83
2017-12-20T02:53:06.069Z,62.00
2017-12-20T02:55:33.507Z,57.83
2017-12-20T02:58:01.026Z,58.10
2017-12-20T03:00:28.438Z,62.33
2017-12-20T03:02:55.973Z,55.63
2017-12-20T03:05:23.442Z,74.35
2017-12-20T03:07:50.889Z,68.90
2017-12-20T03:10:19.070Z,65.55
2017-12-20T03:12:47.282Z,65.70
2017-12-20T03:15:15.461Z,61.65
2017-12-20T03:17:42.930Z,57.42
2017-12-20T03:20:10.342Z,61.17
2017-12-20T03:22:37.767Z,52.47
2017-12-20T03:25:05.178Z,61.50
2017-12-20T03:27:34.134Z,60.20
2017-12-20T03:30:01.558Z,63.67
2017-12-20T03:32:29.081Z,49.50
2017-12-20T03:34:56.484Z,58.60
2017-12-20T03:37:24.013Z,50.83
2017-12-20T03:39:51.422Z,59.43
2017-12-20T03:42:18.876Z,51.92
2017-12-20T03:44:46.328Z,53.17
2017-12-20T03:47:13.790Z,53.27
2017-12-20T03:49:41.261Z,43.77
2017-12-20T03:52:08.666Z,49.63
2017-12-20T03:54:36.078Z,46.00
2017-12-20T03:57:03.501Z,53.27
2017-12-20T03:59:30.902Z,45.80
2017-12-20T04:01:59.115Z,46.90
2017-12-20T04:04:26.518Z,55.20
2017-12-20T04:06:53.931Z,54.67
2017-12-20T04:09:22.145Z,52.03
2017-12-20T04:11:49.600Z,48.57
2017-12-20T04:14:17.008Z,52.80
2017-12-20T04:16:44.434Z,49.30
2017-12-20T04:19:11.915Z,51.80
2017-12-20T04:21:39.383Z,55.57
2017-12-20T04:24:06.787Z,50.10
2017-12-20T04:26:34.207Z,50.10
2017-12-20T04:29:01.687Z,45.70
2017-12-20T04:31:29.096Z,44.73
2017-12-20T04:33:56.533Z,47.73
2017-12-20T04:36:23.950Z,44.30
2017-12-20T04:38:52.171Z,45.50
2017-12-20T04:41:19.609Z,43.40
2017-12-20T04:43:47.787Z,43.53
2017-12-20T04:46:17.180Z,42.07
2017-12-20T04:48:44.599Z,39.40
2017-12-20T04:51:12.794Z,41.30
2017-12-20T04:53:40.210Z,42.97
2017-12-20T04:56:07.636Z,38.73
2017-12-20T04:58:35.045Z,39.23
2017-12-20T05:01:02.450Z,38.30
2017-12-20T05:03:30.626Z,36.10
2017-12-20T05:05:58.798Z,36.40
2017-12-20T05:08:26.222Z,38.50
2017-12-20T05:10:53.631Z,31.80
2017-12-20T05:13:21.138Z,33.03
2017-12-20T05:15:48.618Z,29.10
2017-12-20T05:18:16.804Z,31.33
2017-12-20T05:20:44.978Z,30.87
2017-12-20T05:23:12.394Z,32.57
2017-12-20T05:25:39.817Z,26.97
2017-12-20T05:28:07.283Z,30.13
2017-12-20T05:30:34.686Z,25.77
2017-12-20T05:33:02.120Z,30.37
2017-12-20T05:35:29.518Z,28.60
2017-12-20T05:37:56.954Z,25.87
2017-12-20T05:40:24.362Z,29.40
2017-12-20T05:42:51.773Z,27.67
2017-12-20T05:45:19.943Z,29.17
2017-12-20T05:47:47.368Z,28.73
2017-12-20T05:50:15.735Z,29.25
2017-12-20T05:52:43.202Z,36.00
2017-12-20T05:55:10.614Z,25.00
2017-12-20T05:57:38.157Z,26.02
2017-12-20T06:00:05.579Z,27.50
2017-12-20T06:02:33.794Z,26.40
2017-12-20T06:05:01.262Z,23.60
2017-12-20T06:07:28.745Z,22.80
2017-12-20T06:09:56.898Z,22.60
2017-12-20T06:12:25.109Z,18.63
2017-12-20T06:14:52.507Z,19.00
2017-12-20T06:17:19.938Z,19.23
2017-12-20T06:19:47.410Z,17.33
2017-12-20T06:22:14.824Z,15.23
2017-12-20T06:24:42.251Z,15.23
2017-12-20T06:27:09.706Z,12.43
2017-12-20T06:29:37.194Z,14.63
2017-12-20T06:32:05.341Z,14.43
2017-12-20T06:34:33.510Z,16.23
2017-12-20T06:37:00.934Z,15.00
2017-12-20T06:39:28.394Z,12.40
2017-12-20T06:41:55.798Z,18.10
2017-12-20T06:44:23.206Z,16.83
2017-12-20T06:46:51.410Z,20.00
2017-12-20T06:49:18.886Z,22.07
2017-12-20T06:51:46.362Z,26.50
2017-12-20T06:54:13.829Z,21.00
2017-12-20T06:56:41.264Z,22.30
2017-12-20T06:59:08.665Z,22.30
2017-12-20T07:01:36.073Z,26.60
2017-12-20T07:04:03.590Z,21.97
2017-12-20T07:06:31.017Z,24.30
2017-12-20T07:08:58.422Z,22.93
2017-12-20T07:11:26.664Z,27.00
2017-12-20T07:13:54.026Z,20.93
2017-12-20T07:16:21.442Z,24.67
2017-12-20T07:18:49.637Z,33.00
2017-12-20T07:21:17.114Z,28.47
2017-12-20T07:23:44.578Z,30.33
2017-12-20T07:26:12.011Z,25.07
2017-12-20T07:28:39.521Z,25.20
2017-12-20T07:31:06.995Z,23.30
2017-12-20T07:33:35.165Z,31.47
2017-12-20T07:36:02.653Z,31.40
2017-12-20T07:38:30.805Z,30.50
2017-12-20T07:40:58.755Z,37.97
2017-12-20T07:43:26.166Z,36.97
2017-12-20T07:45:53.646Z,33.38
2017-12-20T07:48:21.050Z,40.00
2017-12-20T07:50:48.510Z,46.50
2017-12-20T07:53:15.962Z,35.83
2017-12-20T07:55:43.377Z,34.80
2017-12-20T07:58:10.785Z,37.20
2017-12-20T08:00:38.249Z,34.83
2017-12-20T08:03:05.671Z,36.67
2017-12-20T08:05:33.079Z,41.23
2017-12-20T08:08:01.250Z,31.30
2017-12-20T08:10:29.422Z,33.20
2017-12-20T08:12:56.941Z,37.40
2017-12-20T08:15:24.326Z,31.97
2017-12-20T08:17:51.774Z,29.73
2017-12-20T08:20:19.921Z,31.57
2017-12-20T08:22:47.327Z,41.70
2017-12-20T08:25:15.718Z,30.53
2017-12-20T08:27:43.899Z,32.30
2017-12-20T08:30:11.374Z,35.43
2017-12-20T08:32:38.867Z,32.93
2017-12-20T08:35:06.245Z,31.07
2017-12-20T08:37:33.650Z,35.43
2017-12-20T08:40:01.863Z,31.33
2017-12-20T08:42:29.287Z,35.17
2017-12-20T08:44:56.682Z,30.53
2017-12-20T08:47:24.218Z,27.40
2017-12-20T08:49:51.629Z,30.20
2017-12-20T08:52:19.054Z,38.70
2017-12-20T08:54:46.462Z,28.50
2017-12-20T08:57:13.872Z,26.87
2017-12-20T08:59:41.406Z,27.13
2017-12-20T09:02:08.814Z,37.47
2017-12-20T09:04:36.220Z,32.47
2017-12-20T09:07:04.390Z,27.23
2017-12-20T09:09:32.571Z,26.00
2017-12-20T09:11:59.999Z,29.60
2017-12-20T09:14:27.385Z,30.97
2017-12-20T09:16:54.820Z,25.00
2017-12-20T09:19:22.289Z,26.23
2017-12-20T09:21:50.575Z,23.60
2017-12-20T09:24:18.045Z,21.00
2017-12-20T09:26:46.222Z,24.80
2017-12-20T09:29:13.702Z,23.50
2017-12-20T09:31:41.880Z,24.80
2017-12-20T09:34:09.298Z,19.13
2017-12-20T09:36:36.712Z,23.93
2017-12-20T09:39:04.129Z,26.92
2017-12-20T09:41:31.550Z,26.40
2017-12-20T09:43:58.965Z,26.37
2017-12-20T09:46:26.375Z,26.17
2017-12-20T09:48:54.577Z,23.60
2017-12-20T09:51:22.052Z,21.60
2017-12-20T09:53:49.624Z,17.87
2017-12-20T09:56:17.908Z,20.37
2017-12-20T09:58:46.087Z,20.70
2017-12-20T10:01:13.566Z,19.77
2017-12-20T10:03:41.738Z,19.60
2017-12-20T10:06:09.151Z,15.60
2017-12-20T10:08:36.574Z,21.33
2017-12-20T10:11:03.993Z,20.20
2017-12-20T10:13:31.442Z,18.20
2017-12-20T10:15:58.893Z,17.03
2017-12-20T10:18:26.304Z,16.60
2017-12-20T10:20:53.927Z,15.90
2017-12-20T10:23:21.400Z,20.43
2017-12-20T10:25:49.541Z,14.23
2017-12-20T10:28:17.712Z,15.80
2017-12-20T10:30:45.127Z,18.17
2017-12-20T10:33:12.604Z,15.20
2017-12-20T10:35:40.799Z,18.40
2017-12-20T10:38:08.258Z,13.37
2017-12-20T10:40:36.409Z,12.83
2017-12-20T10:43:04.628Z,13.90
2017-12-20T10:45:32.110Z,14.07
2017-12-20T10:47:59.563Z,14.43
2017-12-20T10:50:26.957Z,15.53
2017-12-20T10:52:54.370Z,16.80
2017-12-20T10:55:22.537Z,12.03
2017-12-20T10:57:50.059Z,12.93
2017-12-20T11:00:17.521Z,9.83
2017-12-20T11:02:44.930Z,12.50
2017-12-20T11:05:12.350Z,12.57
2017-12-20T11:07:40.027Z,12.90
2017-12-20T11:10:08.209Z,10.33
2017-12-20T11:12:35.609Z,9.40
2017-12-20T11:15:03.024Z,10.43
2017-12-20T11:17:31.234Z,13.97
2017-12-20T11:19:58.654Z,13.10
2017-12-20T11:22:26.070Z,13.17
2017-12-20T11:24:53.487Z,10.53
2017-12-20T11:27:20.911Z,12.57
2017-12-20T11:29:48.373Z,9.70
2017-12-20T11:32:15.773Z,11.67
2017-12-20T11:34:43.192Z,9.90
2017-12-20T11:37:11.370Z,10.50
2017-12-20T11:39:39.696Z,10.57
2017-12-20T11:42:07.098Z,11.37
2017-12-20T11:44:34.522Z,9.23
2017-12-20T11:47:01.927Z,13.70
2017-12-20T11:49:29.325Z,10.00
2017-12-20T11:51:57.550Z,12.10
2017-12-20T11:54:25.717Z,8.77
2017-12-20T11:56:53.208Z,12.70
2017-12-20T11:59:21.358Z,22.27
2017-12-20T12:01:49.529Z,10.30
2017-12-20T12:04:17.034Z,8.67
2017-12-20T12:06:44.438Z,9.57
2017-12-20T12:09:11.874Z,10.97
2017-12-20T12:11:39.289Z,7.20
2017-12-20T12:14:06.689Z,10.43
2017-12-20T12:16:35.006Z,13.90
2017-12-20T12:19:03.182Z,6.90
2017-12-20T12:21:30.663Z,11.57
2017-12-20T12:23:58.815Z,10.70
2017-12-20T12:26:26.978Z,15.00
2017-12-20T12:28:54.399Z,11.93
2017-12-20T12:31:21.868Z,11.53
2017-12-20T12:33:50.010Z,13.10
2017-12-20T12:36:17.418Z,14.40
2017-12-20T12:38:44.890Z,12.63
2017-12-20T12:41:13.045Z,13.77
2017-12-20T12:43:40.449Z,19.70
2017-12-20T12:46:07.858Z,17.10
2017-12-20T12:48:36.029Z,25.80
2017-12-20T12:51:03.445Z,16.80
2017-12-20T12:53:30.866Z,13.30
2017-12-20T12:55:58.402Z,13.80
2017-12-20T12:58:25.854Z,12.10
2017-12-20T13:00:53.265Z,12.50
2017-12-20T13:03:20.674Z,12.63
2017-12-20T13:05:48.882Z,12.93
2017-12-20T13:08:16.390Z,9.67
2017-12-20T13:10:43.817Z,10.63
2017-12-20T13:13:11.305Z,9.87
2017-12-20T13:15:38.764Z,10.40
2017-12-20T13:18:06.172Z,10.90
2017-12-20T13:20:33.604Z,12.70
2017-12-20T13:23:01.737Z,9.97
2017-12-20T13:25:29.245Z,13.23
2017-12-20T13:27:56.731Z,10.53
2017-12-20T13:30:24.121Z,10.30
2017-12-20T13:32:51.594Z,12.07
2017-12-20T13:35:19.067Z,14.00
2017-12-20T13:37:46.504Z,11.63
2017-12-20T13:40:13.933Z,16.77
2017-12-20T13:42:41.326Z,11.50
2017-12-20T13:45:08.805Z,10.23
2017-12-20T13:47:36.266Z,11.33
2017-12-20T13:50:03.730Z,11.00
2017-12-20T13:52:31.206Z,12.03
2017-12-20T13:54:58.613Z,15.27
2017-12-20T13:57:26.041Z,12.60
2017-12-20T13:59:53.445Z,13.57
2017-12-20T14:02:20.869Z,12.83
2017-12-20T14:04:48.282Z,14.80
2017-12-20T14:07:15.713Z,16.10
2017-12-20T14:09:43.203Z,14.63
2017-12-20T14:12:10.649Z,14.80
2017-12-20T14:14:38.116Z,18.60
2017-12-20T14:17:05.586Z,16.90
2017-12-20T14:19:33.002Z,19.43
2017-12-20T14:22:00.406Z,17.90
2017-12-20T14:24:28.598Z,17.70
2017-12-20T14:26:56.009Z,22.60
2017-12-20T14:29:23.453Z,19.43
2017-12-20T14:31:50.863Z,18.57
2017-12-20T14:34:19.814Z,17.80
2017-12-20T14:36:47.228Z,17.40
2017-12-20T14:39:14.664Z,19.80
2017-12-20T14:41:42.055Z,16.77
2017-12-20T14:44:09.458Z,19.20
2017-12-20T14:46:37.633Z,23.93
2017-12-20T14:49:05.190Z,17.90
2017-12-20T14:51:32.623Z,17.30
2017-12-20T14:54:00.015Z,18.23
2017-12-20T14:56:27.437Z,21.03
2017-12-20T14:58:54.922Z,19.50
2017-12-20T15:01:22.391Z,19.27
2017-12-20T15:03:49.857Z,22.93
2017-12-20T15:06:17.272Z,21.47
2017-12-20T15:08:44.670Z,22.90
2017-12-20T15:11:12.886Z,20.53
2017-12-20T15:13:40.356Z,18.73
2017-12-20T15:16:08.646Z,16.57
2017-12-20T15:18:36.793Z,16.87
2017-12-20T15:21:04.966Z,17.17
2017-12-20T15:23:32.366Z,13.73
2017-12-20T15:25:59.782Z,16.70
2017-12-20T15:28:27.215Z,17.97
2017-12-20T15:30:55.365Z,16.30
2017-12-20T15:33:23.589Z,18.00
2017-12-20T15:35:51.042Z,16.57
2017-12-20T15:38:18.450Z,16.80
2017-12-20T15:40:45.861Z,17.70
2017-12-20T15:43:14.078Z,20.73
2017-12-20T15:45:41.489Z,16.83
2017-12-20T15:48:09.005Z,18.33
2017-12-20T15:50:36.503Z,17.53
2017-12-20T15:53:03.885Z,17.33
2017-12-20T15:55:31.310Z,16.87
2017-12-20T15:57:58.722Z,20.97
2017-12-20T16:00:26.132Z,17.80
2017-12-20T16:02:54.339Z,19.60
2017-12-20T16:05:21.807Z,21.00
2017-12-20T16:07:49.271Z,22.70
2017-12-20T16:10:16.738Z,29.33
2017-12-20T16:12:44.157Z,20.80
2017-12-20T16:15:11.578Z,24.03
2017-12-20T16:17:39.042Z,17.50
2017-12-20T16:20:06.478Z,18.20
2017-12-20T16:22:33.891Z,18.60
2017-12-20T16:25:01.350Z,19.37
2017-12-20T16:27:28.828Z,23.30
2017-12-20T16:29:56.985Z,27.00
2017-12-20T16:32:25.188Z,21.33
2017-12-20T16:34:52.609Z,19.17
2017-12-20T16:37:20.020Z,19.63
2017-12-20T16:39:47.504Z,16.70
2017-12-20T16:42:15.654Z,19.20
2017-12-20T16:44:43.057Z,21.17
2017-12-20T16:47:10.513Z,16.30
2017-12-20T16:49:38.002Z,16.33
2017-12-20T16:52:05.424Z,20.27
2017-12-20T16:54:32.842Z,17.27
2017-12-20T16:57:00.250Z,14.73
2017-12-20T16:59:27.664Z,20.30
2017-12-20T17:01:55.871Z,19.37
2017-12-20T17:04:24.062Z,18.43
2017-12-20T17:06:51.481Z,17.90
2017-12-20T17:09:18.991Z,19.23
2017-12-20T17:11:46.465Z,18.63
2017-12-20T17:14:14.619Z,16.10
2017-12-20T17:16:42.818Z,17.00
2017-12-20T17:19:10.237Z,16.20
2017-12-20T17:21:37.670Z,14.23
2017-12-20T17:24:05.147Z,20.50
2017-12-20T17:26:32.534Z,14.90
2017-12-20T17:28:59.958Z,16.27
2017-12-20T17:31:27.467Z,16.07
2017-12-20T17:33:54.898Z,15.20
2017-12-20T17:36:22.378Z,15.50
2017-12-20T17:38:49.789Z,15.17
2017-12-20T17:41:17.194Z,18.27
2017-12-20T17:43:45.398Z,18.70
2017-12-20T17:46:12.822Z,19.20
2017-12-20T17:48:40.237Z,14.47
2017-12-20T17:51:07.709Z,15.70
2017-12-20T17:53:35.167Z,14.87
2017-12-20T17:56:02.574Z,13.90
2017-12-20T17:58:30.007Z,15.20
2017-12-20T18:00:57.419Z,14.80
2017-12-20T18:03:24.837Z,12.63
2017-12-20T18:05:52.381Z,14.17
2017-12-20T18:08:19.733Z,12.87
2017-12-20T18:10:47.148Z,15.10
2017-12-20T18:13:14.625Z,16.47
2017-12-20T18:15:42.778Z,17.17
2017-12-20T18:18:10.954Z,13.20
2017-12-20T18:20:39.133Z,17.23
2017-12-20T18:23:06.542Z,13.10
2017-12-20T18:25:33.953Z,14.80
2017-12-20T18:28:01.391Z,15.37
2017-12-20T18:30:28.786Z,13.87
2017-12-20T18:32:56.207Z,16.10
2017-12-20T18:35:23.601Z,16.50
2017-12-20T18:37:51.016Z,14.67
2017-12-20T18:40:19.199Z,16.00
2017-12-20T18:42:46.812Z,15.50
2017-12-20T18:45:14.965Z,18.87
2017-12-20T18:47:42.366Z,12.07
2017-12-20T18:50:09.774Z,12.50
2017-12-20T18:52:37.207Z,12.53
2017-12-20T18:55:04.606Z,13.93
2017-12-20T18:57:32.031Z,15.90
2017-12-20T18:59:59.493Z,14.27
2017-12-20T19:02:27.075Z,13.13
2017-12-20T19:04:55.251Z,12.27
2017-12-20T19:07:22.666Z,12.73
2017-12-20T19:09:50.086Z,12.73
2017-12-20T19:12:17.489Z,14.43
2017-12-20T19:14:44.906Z,13.07
2017-12-20T19:17:13.222Z,12.60
2017-12-20T19:19:40.634Z,13.40
2017-12-20T19:22:08.054Z,15.00
2017-12-20T19:24:35.446Z,13.97
2017-12-20T19:27:02.863Z,14.10
2017-12-20T19:29:31.030Z,15.17
2017-12-20T19:31:58.455Z,15.43
2017-12-20T19:34:25.858Z,17.83
2017-12-20T19:36:53.282Z,15.80
2017-12-20T19:39:20.678Z,17.30
2017-12-20T19:41:48.098Z,17.10
2017-12-20T19:44:16.278Z,16.43
2017-12-20T19:46:44.454Z,15.20
2017-12-20T19:49:12.628Z,15.00
2017-12-20T19:51:40.059Z,13.80
2017-12-20T19:54:07.462Z,20.00
2017-12-20T19:56:34.871Z,17.07
2017-12-20T19:59:02.279Z,19.57
2017-12-20T20:01:29.687Z,19.40
2017-12-20T20:03:57.890Z,18.50
2017-12-20T20:06:25.357Z,22.60
2017-12-20T20:08:52.776Z,18.70
2017-12-20T20:11:20.304Z,19.60
2017-12-20T20:13:48.599Z,24.50
2017-12-20T20:16:16.069Z,22.40
2017-12-20T20:18:43.475Z,21.13
2017-12-20T20:21:10.894Z,21.10
2017-12-20T20:23:38.368Z,24.93
2017-12-20T20:26:06.557Z,22.27
2017-12-20T20:28:33.966Z,30.20
2017-12-20T20:31:01.369Z,27.80
2017-12-20T20:33:28.846Z,28.00
2017-12-20T20:35:56.253Z,28.10
2017-12-20T20:38:23.666Z,30.50
2017-12-20T20:40:51.851Z,28.30
2017-12-20T20:43:20.027Z,34.37
2017-12-20T20:45:48.250Z,37.57
2017-12-20T20:48:15.654Z,31.97
2017-12-20T20:50:43.078Z,37.67
2017-12-20T20:53:10.490Z,39.77
2017-12-20T20:55:37.914Z,38.17
2017-12-20T20:58:05.328Z,53.80
2017-12-20T21:00:32.730Z,44.30
2017-12-20T21:03:00.928Z,41.77
2017-12-20T21:05:28.334Z,46.30
2017-12-20T21:07:55.753Z,51.07
2017-12-20T21:10:23.943Z,43.17
2017-12-20T21:12:52.126Z,42.63
2017-12-20T21:15:20.343Z,55.27
2017-12-20T21:17:47.742Z,48.03
2017-12-20T21:20:15.162Z,52.30
2017-12-20T21:22:42.639Z,55.77
2017-12-20T21:25:10.097Z,51.93
2017-12-20T21:27:37.507Z,52.93
2017-12-20T21:30:04.910Z,51.40
2017-12-20T21:32:33.120Z,52.43
2017-12-20T21:35:01.302Z,52.57
2017-12-20T21:37:28.713Z,50.70
2017-12-20T21:39:56.122Z,49.83
2017-12-20T21:42:24.297Z,50.47
2017-12-20T21:44:52.514Z,56.83
2017-12-20T21:47:19.998Z,51.30
2017-12-20T21:49:47.407Z,53.37
2017-12-20T21:52:14.817Z,48.43
2017-12-20T21:54:42.290Z,50.87
2017-12-20T21:57:09.702Z,57.00
2017-12-20T21:59:37.124Z,53.03
2017-12-20T22:02:04.535Z,49.03
2017-12-20T22:04:31.968Z,48.27
2017-12-20T22:06:59.430Z,48.20
2017-12-20T22:09:26.846Z,49.63
2017-12-20T22:11:54.258Z,46.83
2017-12-20T22:14:21.730Z,49.43
2017-12-20T22:16:49.180Z,42.27
2017-12-20T22:19:16.677Z,45.57
2017-12-20T22:21:44.149Z,46.33
2017-12-20T22:24:11.613Z,46.20
2017-12-20T22:26:39.105Z,47.43
2017-12-20T22:29:06.516Z,44.20
2017-12-20T22:31:34.028Z,33.80
2017-12-20T22:34:01.439Z,36.80
2017-12-20T22:36:28.845Z,35.57
2017-12-20T22:38:56.272Z,37.67
2017-12-20T22:41:23.684Z,32.10
2017-12-20T22:43:51.161Z,34.23
2017-12-20T22:46:18.639Z,32.87
2017-12-20T22:48:46.106Z,35.80
2017-12-20T22:51:13.526Z,31.47
2017-12-20T22:53:40.939Z,37.60
2017-12-20T22:56:08.404Z,32.73
2017-12-20T22:58:35.840Z,37.40
2017-12-20T23:01:04.037Z,34.90
2017-12-20T23:03:32.247Z,35.43
2017-12-20T23:05:59.750Z,34.23
2017-12-20T23:11:01.103Z,33.27
2017-12-20T23:13:28.518Z,33.50
2017-12-20T23:15:55.940Z,33.07
2017-12-20T23:18:23.418Z,30.07
2017-12-20T23:20:50.830Z,35.47
2017-12-20T23:23:18.344Z,33.47
2017-12-20T23:25:45.759Z,35.10
2017-12-20T23:28:13.170Z,32.10
2017-12-20T23:30:40.678Z,39.13
2017-12-20T23:33:08.094Z,37.13
2017-12-20T23:35:36.280Z,36.00
2017-12-20T23:38:04.466Z,38.53
2017-12-20T23:40:32.657Z,39.87
2017-12-20T23:43:00.860Z,33.47
2017-12-20T23:45:28.266Z,32.93
2017-12-20T23:47:55.696Z,39.00
2017-12-20T23:50:23.276Z,35.60
2017-12-20T23:52:51.441Z,35.80
2017-12-20T23:55:19.666Z,38.70
2017-12-20T23:57:47.219Z,39.93
